createdAt,value
2022-08-17T00:00:49.379Z,99706.09
2022-08-17T00:02:56.443Z,99707.11
2022-08-17T00:05:01.372Z,99703.78
2022-08-17T00:07:05.889Z,99699.48
2022-08-17T00:09:18.228Z,99701.66
2022-08-17T00:11:23.423Z,99706.36
2022-08-17T00:13:27.976Z,99702.53
2022-08-17T00:15:32.497Z,99697.42
2022-08-17T00:17:36.988Z,99696.8
2022-08-17T00:19:41.540Z,99697.72
2022-08-17T00:22:36.866Z,99695.66
2022-08-17T00:24:41.572Z,99695.31
2022-08-17T00:26:46.636Z,99700.25
2022-08-17T00:28:52.999Z,99704.37
2022-08-17T00:30:57.556Z,99696.47
2022-08-17T00:33:17.102Z,99701.52
2022-08-17T00:35:21.641Z,99703.27
2022-08-17T00:37:26.086Z,99706.57
2022-08-17T00:39:30.761Z,99703
2022-08-17T00:41:35.535Z,99703.69
2022-08-17T00:43:45.888Z,99702.43
2022-08-17T00:45:50.415Z,99704.64
2022-08-17T00:47:55.037Z,99708.81
2022-08-17T00:49:59.623Z,99705.14
2022-08-17T00:52:12.195Z,99706.8
2022-08-17T00:54:17.285Z,99699.92
2022-08-17T00:56:21.812Z,99703.35
2022-08-17T00:58:37.185Z,99704.03
2022-08-17T01:00:41.860Z,99704.44
2022-08-17T01:02:46.535Z,99705.53
2022-08-17T01:04:51.024Z,99707.75
2022-08-17T01:06:55.545Z,99701.27
2022-08-17T01:09:00.085Z,99703.67
2022-08-17T01:11:04.607Z,99708.08
2022-08-17T01:13:09.123Z,99707.33
2022-08-17T01:15:13.648Z,99707.15
2022-08-17T01:17:18.175Z,99701.55
2022-08-17T01:19:22.685Z,99699.83
2022-08-17T01:21:27.204Z,99698.8
2022-08-17T01:23:31.677Z,99695.42
2022-08-17T01:25:36.244Z,99698.67
2022-08-17T01:27:40.759Z,99698.28
2022-08-17T01:29:45.260Z,99692.14
2022-08-17T01:31:49.899Z,99690.36
2022-08-17T01:33:54.528Z,99690.65
2022-08-17T01:35:59.035Z,99693.05
2022-08-17T01:38:03.567Z,99692.14
2022-08-17T01:40:08.565Z,99690.81
2022-08-17T01:42:14.999Z,99692.19
2022-08-17T01:44:19.465Z,99689.38
2022-08-17T01:46:23.885Z,99690.41
2022-08-17T01:48:28.407Z,99693.37
2022-08-17T01:50:32.926Z,99695.02
2022-08-17T01:52:37.440Z,99693.02
2022-08-17T01:54:42.071Z,99696.04
2022-08-17T01:56:48.735Z,99695.63
2022-08-17T01:58:53.255Z,99694.05
2022-08-17T02:01:02.070Z,99695.02
2022-08-17T02:03:06.736Z,99694
2022-08-17T02:05:11.181Z,99697.25
2022-08-17T02:07:18.615Z,99693.73
2022-08-17T02:09:31.288Z,99695.91
2022-08-17T02:11:35.910Z,99697.41
2022-08-17T02:13:40.451Z,99696.6
2022-08-17T02:15:45.071Z,99694.13
2022-08-17T02:17:55.939Z,99694.67
2022-08-17T02:20:00.462Z,99688.96
2022-08-17T02:22:04.977Z,99690
2022-08-17T02:24:09.499Z,99685.02
2022-08-17T02:26:27.430Z,99687.63
2022-08-17T02:28:31.950Z,99682.92
2022-08-17T02:31:03.353Z,99684.24
2022-08-17T02:33:10.482Z,99683.91
2022-08-17T02:35:20.467Z,99685.77
2022-08-17T02:37:26.787Z,99685.94
2022-08-17T02:39:31.489Z,99682.23
2022-08-17T02:41:36.237Z,99686.18
2022-08-17T02:43:40.725Z,99686.5
2022-08-17T02:45:45.275Z,99686.95
2022-08-17T02:47:49.861Z,99687.27
2022-08-17T02:49:56.975Z,99685.59
2022-08-17T02:52:01.512Z,99685.88
2022-08-17T02:54:42.456Z,99685.36
2022-08-17T02:56:47.195Z,99686.54
2022-08-17T02:58:51.712Z,99686.07
2022-08-17T03:00:58.229Z,99691.78
2022-08-17T03:03:03.410Z,99697.55
2022-08-17T03:05:07.937Z,99694.64
2022-08-17T03:07:12.446Z,99696.47
2022-08-17T03:09:16.947Z,99698.88
2022-08-17T03:11:21.467Z,99693.95
2022-08-17T03:13:26.013Z,99696.51
2022-08-17T03:15:30.510Z,99700.78
2022-08-17T03:17:35.144Z,99697.35
2022-08-17T03:19:44.069Z,99700
2022-08-17T03:21:56.265Z,99700.92
2022-08-17T03:24:01.606Z,99702.06
2022-08-17T03:26:17.386Z,99697.37
2022-08-17T03:28:24.267Z,99703.86
2022-08-17T03:30:28.784Z,99704.25
2022-08-17T03:32:33.299Z,99706.78
2022-08-17T03:34:37.822Z,99710.33
2022-08-17T03:36:42.338Z,99713.9
2022-08-17T03:38:47.309Z,99713.53
2022-08-17T03:41:00.072Z,99715.73
2022-08-17T03:43:04.703Z,99719.34
2022-08-17T03:45:09.222Z,99724.17
2022-08-17T03:47:13.741Z,99722.8
2022-08-17T03:49:18.256Z,99723.88
2022-08-17T03:51:22.778Z,99725.35
2022-08-17T03:53:27.302Z,99723.7
2022-08-17T03:55:37.549Z,99727.3
2022-08-17T03:57:42.064Z,99730.88
2022-08-17T03:59:47.639Z,99730.25
2022-08-17T04:01:54.416Z,99728.38
2022-08-17T04:03:59.113Z,99731.98
2022-08-17T04:06:03.731Z,99732.84
2022-08-17T04:08:08.251Z,99735.47
2022-08-17T04:10:12.874Z,99736.88
2022-08-17T04:12:17.396Z,99741.69
2022-08-17T04:14:21.907Z,99741.88
2022-08-17T04:16:26.413Z,99739.23
2022-08-17T04:18:30.945Z,99736.88
2022-08-17T04:20:38.227Z,99738.67
2022-08-17T04:22:42.855Z,99741.28
2022-08-17T04:24:51.977Z,99746.63
2022-08-17T04:26:57.109Z,99748.45
2022-08-17T04:29:01.728Z,99747.97
2022-08-17T04:31:07.887Z,99753.88
2022-08-17T04:33:12.716Z,99753.94
2022-08-17T04:35:18.015Z,99757.77
2022-08-17T04:37:22.573Z,99756.96
2022-08-17T04:39:27.212Z,99761.73
2022-08-17T04:41:31.823Z,99762.66
2022-08-17T04:43:36.331Z,99762.19
2022-08-17T04:45:40.866Z,99759.78
2022-08-17T04:48:00.844Z,99758.23
2022-08-17T04:50:05.362Z,99759.71
2022-08-17T04:52:42.664Z,99758.81
2022-08-17T04:54:49.315Z,99760.23
2022-08-17T04:56:53.833Z,99760.89
2022-08-17T04:58:58.350Z,99759.12
2022-08-17T05:01:03.032Z,99762.34
2022-08-17T05:03:07.676Z,99765.8
2022-08-17T05:05:13.923Z,99767.26
2022-08-17T05:07:27.239Z,99764.07
2022-08-17T05:09:35.287Z,99764
2022-08-17T05:11:45.945Z,99767.58
2022-08-17T05:13:50.591Z,99764.45
2022-08-17T05:15:55.191Z,99764.91
2022-08-17T05:17:59.708Z,99769.5
2022-08-17T05:20:04.231Z,99769.09
2022-08-17T05:22:08.757Z,99766.52
2022-08-17T05:24:43.410Z,99770.78
2022-08-17T05:27:07.142Z,99764
2022-08-17T05:29:11.611Z,99760.05
2022-08-17T05:31:16.153Z,99755.81
2022-08-17T05:33:20.672Z,99760.45
2022-08-17T05:35:25.217Z,99760.58
2022-08-17T05:37:29.737Z,99759.19
2022-08-17T05:39:34.390Z,99759.67
2022-08-17T05:41:39.063Z,99759.36
2022-08-17T05:43:43.483Z,99751.89
2022-08-17T05:45:56.773Z,99754.41
2022-08-17T05:48:01.355Z,99757.2
2022-08-17T05:50:10.812Z,99759.97
2022-08-17T05:52:29.615Z,99761.44
2022-08-17T05:54:34.141Z,99763.98
2022-08-17T05:56:38.653Z,99764.58
2022-08-17T05:58:43.188Z,99763.19
2022-08-17T06:00:47.895Z,99767.19
2022-08-17T06:02:53.461Z,99771.53
2022-08-17T06:04:58.494Z,99769.61
2022-08-17T06:07:03.007Z,99774.07
2022-08-17T06:09:07.532Z,99773.82
2022-08-17T06:11:12.711Z,99776.36
2022-08-17T06:13:17.177Z,99779.17
2022-08-17T06:15:21.695Z,99779.81
2022-08-17T06:17:26.215Z,99779.06
2022-08-17T06:19:30.734Z,99783.83
2022-08-17T06:21:35.256Z,99784.47
2022-08-17T06:23:39.771Z,99781.67
2022-08-17T06:25:44.289Z,99779.86
2022-08-17T06:27:54.598Z,99779.62
2022-08-17T06:29:59.162Z,99777.83
2022-08-17T06:32:03.682Z,99778.48
2022-08-17T06:34:08.291Z,99784.2
2022-08-17T06:36:17.127Z,99786.19
2022-08-17T06:38:38.992Z,99785.17
2022-08-17T06:40:43.576Z,99790.56
2022-08-17T06:43:07.389Z,99791.08
2022-08-17T06:45:12.614Z,99798.55
2022-08-17T06:47:29.582Z,99797.95
2022-08-17T06:49:34.093Z,99791.78
2022-08-17T06:51:38.525Z,99797.84
2022-08-17T06:53:43.150Z,99797.84
2022-08-17T06:55:47.761Z,99795.83
2022-08-17T06:57:52.392Z,99798.17
2022-08-17T06:59:57.767Z,99803.09
2022-08-17T07:02:02.338Z,99800.26
2022-08-17T07:04:13.256Z,99795.97
2022-08-17T07:06:17.828Z,99799.47
2022-08-17T07:08:30.026Z,99801.99
2022-08-17T07:10:38.443Z,99801.77
2022-08-17T07:12:43.210Z,99804.22
2022-08-17T07:14:47.784Z,99809.88
2022-08-17T07:16:52.380Z,99810.74
2022-08-17T07:18:56.927Z,99811.3
2022-08-17T07:21:02.767Z,99814.44
2022-08-17T07:23:07.286Z,99814.38
2022-08-17T07:25:16.981Z,99815.23
2022-08-17T07:27:25.442Z,99814.15
2022-08-17T07:29:30.167Z,99815.68
2022-08-17T07:31:34.729Z,99814.04
2022-08-17T07:33:39.304Z,99815.36
2022-08-17T07:35:45.164Z,99815.89
2022-08-17T07:37:50.315Z,99821.77
2022-08-17T07:40:17.434Z,99822.21
2022-08-17T07:42:22.267Z,99826.18
2022-08-17T07:44:26.890Z,99827.97
2022-08-17T07:46:31.504Z,99825.84
2022-08-17T07:48:35.985Z,99826.44
2022-08-17T07:50:40.555Z,99822.48
2022-08-17T07:52:53.662Z,99821.88
2022-08-17T07:54:58.182Z,99823.24
2022-08-17T07:57:02.680Z,99817.7
2022-08-17T07:59:08.445Z,99818.02
2022-08-17T08:01:14.493Z,99824.27
2022-08-17T08:03:23.641Z,99820.48
2022-08-17T08:05:51.284Z,99821.18
2022-08-17T08:07:56.731Z,99817.13
2022-08-17T08:10:01.352Z,99818.98
2022-08-17T08:12:05.864Z,99818.46
2022-08-17T08:14:20.410Z,99820.42
2022-08-17T08:16:31.779Z,99821.28
2022-08-17T08:18:57.022Z,99816.91
2022-08-17T08:21:02.187Z,99821.17
2022-08-17T08:23:06.759Z,99819.56
2022-08-17T08:25:11.278Z,99820.35
2022-08-17T08:27:15.800Z,99823.56
2022-08-17T08:29:20.420Z,99819.84
2022-08-17T08:31:24.942Z,99817.05
2022-08-17T08:33:29.560Z,99820.23
2022-08-17T08:35:34.076Z,99822.3
2022-08-17T08:37:50.676Z,99825.17
2022-08-17T08:39:55.775Z,99821.69
2022-08-17T08:42:00.640Z,99826.95
2022-08-17T08:44:05.159Z,99825.8
2022-08-17T08:46:09.671Z,99825.13
2022-08-17T08:48:57.196Z,99823.36
2022-08-17T08:51:15.130Z,99824.64
2022-08-17T08:53:20.200Z,99817.05
2022-08-17T08:55:24.766Z,99816.98
2022-08-17T08:57:35.241Z,99817.39
2022-08-17T08:59:45.296Z,99816.66
2022-08-17T09:02:02.408Z,99817.35
2022-08-17T09:04:25.806Z,99813.3
2022-08-17T09:06:40.626Z,99809.58
2022-08-17T09:08:45.156Z,99813.13
2022-08-17T09:10:49.880Z,99813.83
2022-08-17T09:12:54.370Z,99815.2
2022-08-17T09:14:58.910Z,99813.91
2022-08-17T09:17:03.422Z,99818.9
2022-08-17T09:19:08.321Z,99813.8
2022-08-17T09:21:13.077Z,99814.89
2022-08-17T09:23:21.793Z,99813.86
2022-08-17T09:25:26.288Z,99814.73
2022-08-17T09:27:30.832Z,99813.7
2022-08-17T09:29:35.449Z,99813.13
2022-08-17T09:31:50.419Z,99814.1
2022-08-17T09:33:54.934Z,99809.65
2022-08-17T09:35:59.663Z,99808
2022-08-17T09:38:04.984Z,99806.86
2022-08-17T09:40:09.882Z,99807.91
2022-08-17T09:42:14.443Z,99808.98
2022-08-17T09:44:24.797Z,99814.27
2022-08-17T09:46:29.316Z,99811.64
2022-08-17T09:48:33.813Z,99814.58
2022-08-17T09:51:06.380Z,99813.28
2022-08-17T09:53:11.339Z,99812.73
2022-08-17T09:55:16.062Z,99815.24
2022-08-17T09:57:32.264Z,99816.87
2022-08-17T09:59:39.745Z,99812.77
2022-08-17T10:01:48.161Z,99815.94
2022-08-17T10:03:52.767Z,99811.22
2022-08-17T10:05:57.619Z,99810.8
2022-08-17T10:08:02.328Z,99804.98
2022-08-17T10:10:14.007Z,99801.97
2022-08-17T10:12:19.037Z,99806.28
2022-08-17T10:14:43.483Z,99807.95
2022-08-17T10:16:57.160Z,99815.29
2022-08-17T10:19:01.633Z,99809.52
2022-08-17T10:21:06.187Z,99811.25
2022-08-17T10:23:10.715Z,99804.83
2022-08-17T10:25:33.407Z,99804.77
2022-08-17T10:27:58.809Z,99803.45
2022-08-17T10:30:03.390Z,99808.56
2022-08-17T10:32:07.875Z,99806.86
2022-08-17T10:34:12.429Z,99806.63
2022-08-17T10:36:16.945Z,99813.22
2022-08-17T10:38:25.667Z,99809.27
2022-08-17T10:40:30.367Z,99809.26
2022-08-17T10:42:35.104Z,99813.27
2022-08-17T10:44:42.594Z,99814.58
2022-08-17T10:46:47.113Z,99813.44
2022-08-17T10:48:51.737Z,99810.59
2022-08-17T10:50:56.256Z,99812.43
2022-08-17T10:53:00.771Z,99812.42
2022-08-17T10:55:05.291Z,99816.17
2022-08-17T10:57:09.807Z,99816.02
2022-08-17T10:59:14.431Z,99816.66
2022-08-17T11:01:19.133Z,99815.52
2022-08-17T11:03:23.770Z,99816.32
2022-08-17T11:05:28.301Z,99811.86
2022-08-17T11:07:33.021Z,99817.07
2022-08-17T11:09:37.533Z,99815.46
2022-08-17T11:11:42.051Z,99812.91
2022-08-17T11:13:46.683Z,99811.02
2022-08-17T11:15:51.196Z,99804.19
2022-08-17T11:17:55.919Z,99805.05
2022-08-17T11:20:00.355Z,99803.52
2022-08-17T11:22:04.851Z,99809.48
2022-08-17T11:24:09.678Z,99805.62
2022-08-17T11:26:14.194Z,99805.06
2022-08-17T11:28:19.288Z,99798.59
2022-08-17T11:30:27.850Z,99797.77
2022-08-17T11:32:34.614Z,99799.8
2022-08-17T11:34:39.648Z,99794.23
2022-08-17T11:36:45.608Z,99793.46
2022-08-17T11:38:50.113Z,99793.88
2022-08-17T11:40:54.621Z,99787.42
2022-08-17T11:42:59.152Z,99788.66
2022-08-17T11:45:03.674Z,99795.41
2022-08-17T11:47:08.195Z,99786.55
2022-08-17T11:49:12.710Z,99785.11
2022-08-17T11:51:17.129Z,99781.18
2022-08-17T11:53:21.645Z,99782.68
2022-08-17T11:55:40.619Z,99776.9
2022-08-17T11:57:48.761Z,99778.67
2022-08-17T11:59:53.738Z,99775.11
2022-08-17T12:01:58.661Z,99767.84
2022-08-17T12:04:03.420Z,99765.67
2022-08-17T12:06:08.091Z,99763.14
2022-08-17T12:08:12.634Z,99759.63
2022-08-17T12:10:17.352Z,99762.69
2022-08-17T12:12:21.859Z,99764.92
2022-08-17T12:17:42.790Z,99761.09
2022-08-17T12:19:47.519Z,99762.99
2022-08-17T12:21:52.032Z,99761.44
2022-08-17T12:23:56.662Z,99766.46
2022-08-17T12:26:01.274Z,99764.64
2022-08-17T12:28:09.277Z,99771.81
2022-08-17T12:30:14.723Z,99759.63
2022-08-17T12:32:19.346Z,99763.02
2022-08-17T12:34:23.857Z,99755.3
2022-08-17T12:36:28.384Z,99755.71
2022-08-17T12:38:34.804Z,99760.19
2022-08-17T12:40:39.561Z,99763.05
2022-08-17T12:42:44.083Z,99761.45
2022-08-17T12:44:51.682Z,99768.15
2022-08-17T12:46:56.195Z,99769.68
2022-08-17T12:49:01.372Z,99769.72
2022-08-17T12:51:05.748Z,99765.77
2022-08-17T12:53:10.169Z,99765.95
2022-08-17T12:55:14.570Z,99766.48
2022-08-17T12:57:18.973Z,99766.48
2022-08-17T12:59:31.452Z,99758.17
2022-08-17T13:01:37.564Z,99760.36
2022-08-17T13:03:42.232Z,99756.7
2022-08-17T13:05:46.811Z,99757.67
2022-08-17T13:07:51.871Z,99754.47
2022-08-17T13:09:56.535Z,99755.16
2022-08-17T13:12:01.080Z,99751.48
2022-08-17T13:14:05.694Z,99751.26
2022-08-17T13:16:10.209Z,99747.69
2022-08-17T13:18:14.747Z,99748.48
2022-08-17T13:20:19.358Z,99748.36
2022-08-17T13:22:23.871Z,99748.67
2022-08-17T13:24:28.389Z,99747.85
2022-08-17T13:26:41.718Z,99750.53
2022-08-17T13:28:46.346Z,99751.03
2022-08-17T13:30:50.868Z,99748.92
2022-08-17T13:32:57.026Z,99742.09
2022-08-17T13:35:27.352Z,99745.71
2022-08-17T13:37:43.813Z,99743.77
2022-08-17T13:39:48.484Z,99740.73
2022-08-17T13:41:53.087Z,99733.92
2022-08-17T13:43:57.620Z,99735.55
2022-08-17T13:46:02.092Z,99741.22
2022-08-17T13:48:06.544Z,99737.59
2022-08-17T13:50:11.168Z,99741.7
2022-08-17T13:52:19.473Z,99745.64
2022-08-17T13:54:32.370Z,99741.64
2022-08-17T13:56:39.986Z,99738.2
2022-08-17T13:58:44.512Z,99742.28
2022-08-17T14:00:49.040Z,99745.19
2022-08-17T14:02:53.540Z,99741.45
2022-08-17T14:04:58.474Z,99741.79
2022-08-17T14:07:03.189Z,99739.08
2022-08-17T14:09:07.719Z,99739.94
2022-08-17T14:11:12.233Z,99733.52
2022-08-17T14:13:16.958Z,99735.71
2022-08-17T14:15:21.443Z,99730.72
2022-08-17T14:17:25.997Z,99737.08
2022-08-17T14:19:30.618Z,99733.77
2022-08-17T14:21:35.131Z,99735.43
2022-08-17T14:23:39.736Z,99734.16
2022-08-17T14:25:47.124Z,99726.77
2022-08-17T14:27:55.204Z,99726.98
2022-08-17T14:30:00.637Z,99731.63
2022-08-17T14:32:05.410Z,99728.8
2022-08-17T14:34:10.030Z,99731.22
2022-08-17T14:36:14.552Z,99727.59
2022-08-17T14:38:19.275Z,99723.34
2022-08-17T14:40:24.002Z,99719.73
2022-08-17T14:42:28.819Z,99722.54
2022-08-17T14:44:33.326Z,99722.5
2022-08-17T14:46:37.888Z,99725.3
2022-08-17T14:48:42.383Z,99724.69
2022-08-17T14:50:46.985Z,99721.66
2022-08-17T14:52:51.520Z,99719.31
2022-08-17T14:54:56.042Z,99721.65
2022-08-17T14:57:34.750Z,99718.84
2022-08-17T14:59:39.359Z,99720.44
2022-08-17T15:01:44.215Z,99726.53
2022-08-17T15:03:48.831Z,99727.29
2022-08-17T15:05:53.344Z,99729.05
2022-08-17T15:07:57.969Z,99724.06
2022-08-17T15:10:03.274Z,99726.89
2022-08-17T15:12:07.802Z,99728.78
2022-08-17T15:14:12.445Z,99732.15
2022-08-17T15:16:16.945Z,99734.23
2022-08-17T15:18:21.483Z,99735.43
2022-08-17T15:20:26.105Z,99728.45
2022-08-17T15:22:30.730Z,99729.55
2022-08-17T15:24:35.345Z,99729.31
2022-08-17T15:26:39.867Z,99730.02
2022-08-17T15:28:49.913Z,99725.65
2022-08-17T15:30:58.839Z,99721.41
2022-08-17T15:33:04.039Z,99720.11
2022-08-17T15:35:09.408Z,99721.55
2022-08-17T15:37:13.897Z,99724.19
2022-08-17T15:39:20.740Z,99723.28
2022-08-17T15:41:25.426Z,99720.8
2022-08-17T15:43:29.913Z,99723.75
2022-08-17T15:45:34.465Z,99724.78
2022-08-17T15:47:38.979Z,99728.52
2022-08-17T15:49:43.424Z,99729.73
2022-08-17T15:51:47.915Z,99731.66
2022-08-17T15:53:52.433Z,99732.87
2022-08-17T15:55:56.951Z,99731.55
2022-08-17T15:58:01.458Z,99731.05
2022-08-17T16:00:05.965Z,99733.63
2022-08-17T16:03:58.487Z,99730.94
2022-08-17T16:06:34.193Z,99737.31
2022-08-17T16:08:38.707Z,99739.22
2022-08-17T16:10:43.234Z,99739.89
2022-08-17T16:12:47.885Z,99735.26
2022-08-17T16:14:52.372Z,99741.45
2022-08-17T16:16:56.874Z,99736.7
2022-08-17T16:19:01.709Z,99738.31
2022-08-17T16:21:06.236Z,99742.36
2022-08-17T16:23:10.866Z,99742.31
2022-08-17T16:25:15.375Z,99745.19
2022-08-17T16:27:19.996Z,99739.52
2022-08-17T16:29:24.619Z,99741.53
2022-08-17T16:31:29.343Z,99743.92
2022-08-17T16:33:33.955Z,99741.35
2022-08-17T16:35:38.477Z,99740.21
2022-08-17T16:37:46.787Z,99739.07
2022-08-17T16:39:51.423Z,99741.71
2022-08-17T16:41:56.374Z,99739.77
2022-08-17T16:44:00.992Z,99742.27
2022-08-17T16:46:05.579Z,99738.08
2022-08-17T16:48:10.099Z,99740.2
2022-08-17T16:50:14.613Z,99736.38
2022-08-17T16:52:34.086Z,99737.58
2022-08-17T16:54:38.704Z,99734.31
2022-08-17T16:56:43.151Z,99735.78
2022-08-17T16:58:51.947Z,99733.95
2022-08-17T17:00:57.250Z,99736.42
2022-08-17T17:03:01.862Z,99735.96
2022-08-17T17:05:22.905Z,99739.52
2022-08-17T17:07:27.422Z,99737.86
2022-08-17T17:09:31.960Z,99737.33
2022-08-17T17:11:36.565Z,99733.41
2022-08-17T17:13:41.082Z,99731.86
2022-08-17T17:15:45.705Z,99728.98
2022-08-17T17:17:50.673Z,99729.3
2022-08-17T17:19:55.663Z,99731.25
2022-08-17T17:22:00.157Z,99734.17
2022-08-17T17:24:04.716Z,99731.9
2022-08-17T17:26:09.278Z,99732.47
2022-08-17T17:28:13.837Z,99736.2
2022-08-17T17:30:18.426Z,99733.14
2022-08-17T17:32:23.050Z,99732.97
2022-08-17T17:34:27.589Z,99737.01
2022-08-17T17:36:32.126Z,99732.98
2022-08-17T17:38:36.754Z,99730.46
2022-08-17T17:40:41.269Z,99728.84
2022-08-17T17:42:45.883Z,99728.73
2022-08-17T17:44:50.511Z,99724.54
2022-08-17T17:46:55.006Z,99722.09
2022-08-17T17:48:59.569Z,99720.2
2022-08-17T17:51:04.065Z,99727.59
2022-08-17T17:53:08.581Z,99729.87
2022-08-17T17:55:13.096Z,99734.98
2022-08-17T17:57:17.617Z,99739.34
2022-08-17T17:59:22.209Z,99738.19
2022-08-17T18:01:26.876Z,99742.42
2022-08-17T18:03:31.589Z,99742.25
2022-08-17T18:05:36.109Z,99747.36
2022-08-17T18:07:43.399Z,99747.7
2022-08-17T18:09:53.668Z,99748.97
2022-08-17T18:12:05.699Z,99739.97
2022-08-17T18:14:10.470Z,99738.88
2022-08-17T18:16:15.137Z,99733.2
2022-08-17T18:18:19.716Z,99723.69
2022-08-17T18:20:46.525Z,99730.73
2022-08-17T18:22:59.559Z,99740.94
2022-08-17T18:25:04.087Z,99741.91
2022-08-17T18:27:09.944Z,99747.48
2022-08-17T18:29:14.676Z,99747.95
2022-08-17T18:31:19.285Z,99747.95
2022-08-17T18:33:24.202Z,99749.77
2022-08-17T18:35:28.834Z,99746.84
2022-08-17T18:37:33.578Z,99744.63
2022-08-17T18:39:38.728Z,99748
2022-08-17T18:41:43.604Z,99747.7
2022-08-17T18:43:54.954Z,99748.62
2022-08-17T18:45:59.527Z,99747.76
2022-08-17T18:48:04.278Z,99752.35
2022-08-17T18:50:11.892Z,99754.47
2022-08-17T18:52:16.793Z,99752.08
2022-08-17T18:54:21.776Z,99756.73
2022-08-17T18:56:26.550Z,99756.9
2022-08-17T18:58:34.009Z,99756.27
2022-08-17T19:00:38.597Z,99757.7
2022-08-17T19:02:47.141Z,99761.64
2022-08-17T19:04:51.896Z,99760.66
2022-08-17T19:06:56.834Z,99756.83
2022-08-17T19:09:01.311Z,99758.55
2022-08-17T19:11:05.923Z,99759.63
2022-08-17T19:13:13.786Z,99761.8
2022-08-17T19:15:27.752Z,99763.25
2022-08-17T19:17:32.211Z,99761.01
2022-08-17T19:19:36.820Z,99762.59
2022-08-17T19:21:41.602Z,99763.7
2022-08-17T19:23:55.514Z,99770.45
2022-08-17T19:26:00.753Z,99778.2
2022-08-17T19:28:23.661Z,99772.86
2022-08-17T19:30:32.458Z,99776.36
2022-08-17T19:32:37.308Z,99776.44
2022-08-17T19:34:42.135Z,99777.81
2022-08-17T19:36:46.655Z,99778.95
2022-08-17T19:38:51.381Z,99784.98
2022-08-17T19:40:56.517Z,99788.98
2022-08-17T19:43:01.800Z,99791.56
2022-08-17T19:45:06.741Z,99785.83
2022-08-17T19:47:11.687Z,99786.73
2022-08-17T19:49:16.330Z,99784.96
2022-08-17T19:51:20.949Z,99785.09
2022-08-17T19:53:47.726Z,99788.59
2022-08-17T19:56:09.836Z,99795.83
2022-08-17T19:58:19.075Z,99798.12
2022-08-17T20:00:24.211Z,99798.52
2022-08-17T20:02:28.922Z,99794.25
2022-08-17T20:04:33.957Z,99791.78
2022-08-17T20:06:38.575Z,99792.13
2022-08-17T20:08:43.291Z,99790.06
2022-08-17T20:10:55.995Z,99787.09
2022-08-17T20:13:00.725Z,99785.89
2022-08-17T20:15:05.346Z,99785.2
2022-08-17T20:17:09.996Z,99782.27
2022-08-17T20:19:14.586Z,99781.87
2022-08-17T20:21:21.051Z,99780.14
2022-08-17T20:23:25.697Z,99781.06
2022-08-17T20:25:31.799Z,99786.86
2022-08-17T20:27:36.333Z,99785.7
2022-08-17T20:29:41.835Z,99780.48
2022-08-17T20:31:46.425Z,99778.66
2022-08-17T20:33:50.927Z,99774.88
2022-08-17T20:35:55.447Z,99775.11
2022-08-17T20:37:59.969Z,99778.32
2022-08-17T20:40:04.708Z,99771.66
2022-08-17T20:42:09.415Z,99770
2022-08-17T20:44:13.936Z,99772.3
2022-08-17T20:46:18.877Z,99774.88
2022-08-17T20:48:39.575Z,99771.26
2022-08-17T20:50:44.741Z,99770.45
2022-08-17T20:52:49.298Z,99765.47
2022-08-17T20:54:53.842Z,99765.77
2022-08-17T20:56:58.560Z,99760.26
2022-08-17T20:59:03.081Z,99763.25
2022-08-17T21:01:07.795Z,99759.92
2022-08-17T21:03:12.529Z,99765.25
2022-08-17T21:05:17.045Z,99763.52
2022-08-17T21:07:21.575Z,99758.25
2022-08-17T21:09:26.059Z,99759.03
2022-08-17T21:12:05.806Z,99755.09
2022-08-17T21:14:10.351Z,99752.33
2022-08-17T21:16:14.790Z,99749.3
2022-08-17T21:18:19.385Z,99751.72
2022-08-17T21:20:24.014Z,99758.48
2022-08-17T21:22:28.632Z,99759.41
2022-08-17T21:24:33.250Z,99759.24
2022-08-17T21:26:51.203Z,99755.46
2022-08-17T21:29:30.594Z,99758.33
2022-08-17T21:31:40.059Z,99759.99
2022-08-17T21:33:47.239Z,99764.86
2022-08-17T21:35:51.760Z,99763.83
2022-08-17T21:38:01.998Z,99763.08
2022-08-17T21:40:06.665Z,99767.44
2022-08-17T21:42:11.353Z,99768.3
2022-08-17T21:44:15.978Z,99766.3
2022-08-17T21:46:20.487Z,99771.34
2022-08-17T21:48:25.028Z,99772.95
2022-08-17T21:50:31.792Z,99777.02
2022-08-17T21:52:36.314Z,99770.55
2022-08-17T21:54:40.826Z,99774.44
2022-08-17T21:56:45.342Z,99771.85
2022-08-17T21:58:49.862Z,99770.59
2022-08-17T22:00:54.521Z,99768.13
2022-08-17T22:02:59.310Z,99768.02
2022-08-17T22:05:03.843Z,99766.92
2022-08-17T22:07:08.346Z,99772.31
2022-08-17T22:09:12.845Z,99775.69
2022-08-17T22:11:17.357Z,99775.3
2022-08-17T22:13:21.809Z,99779.77
2022-08-17T22:15:39.913Z,99777.88
2022-08-17T22:17:44.748Z,99775.65
2022-08-17T22:19:49.540Z,99784.02
2022-08-17T22:21:54.333Z,99785
2022-08-17T22:23:59.064Z,99788.84
2022-08-17T22:26:03.887Z,99787.05
2022-08-17T22:28:08.636Z,99793.36
2022-08-17T22:30:13.339Z,99792.5
2022-08-17T22:32:18.168Z,99799.67
2022-08-17T22:34:22.991Z,99796.39
2022-08-17T22:36:30.285Z,99799.83
2022-08-17T22:38:35.512Z,99805.11
2022-08-17T22:40:41.764Z,99804.3
2022-08-17T22:42:46.495Z,99801.61
2022-08-17T22:44:51.217Z,99797.08
2022-08-17T22:46:55.939Z,99797.19
2022-08-17T22:49:00.617Z,99797.19
2022-08-17T22:51:14.020Z,99800.52
2022-08-17T22:53:18.915Z,99806.19
2022-08-17T22:55:23.742Z,99804.98
2022-08-17T22:57:28.569Z,99804.48
2022-08-17T22:59:33.397Z,99814.86
2022-08-17T23:01:38.221Z,99816.69
2022-08-17T23:03:42.950Z,99820.3
2022-08-17T23:05:47.769Z,99815.14
2022-08-17T23:07:53.006Z,99818.59
2022-08-17T23:09:57.732Z,99820.36
2022-08-17T23:12:02.455Z,99818.23
2022-08-17T23:14:07.077Z,99818.75
2022-08-17T23:16:11.804Z,99817.48
2022-08-17T23:18:16.576Z,99818.06
2022-08-17T23:20:21.351Z,99817.98
2022-08-17T23:22:26.004Z,99823.73
2022-08-17T23:24:30.697Z,99819.36
2022-08-17T23:26:35.421Z,99818.41
2022-08-17T23:28:40.149Z,99815.31
2022-08-17T23:30:44.972Z,99814.05
2022-08-17T23:32:55.118Z,99815.31
2022-08-17T23:34:59.770Z,99815.01
2022-08-17T23:37:04.385Z,99813.75
2022-08-17T23:39:08.985Z,99815.42
2022-08-17T23:41:13.811Z,99816.56
2022-08-17T23:43:27.573Z,99813.93
2022-08-17T23:45:32.886Z,99810.84
2022-08-17T23:47:37.710Z,99807.73
2022-08-17T23:49:42.357Z,99809.1
2022-08-17T23:51:50.337Z,99811.1
2022-08-17T23:53:54.960Z,99816.38
2022-08-17T23:56:11.401Z,99808.17
2022-08-17T23:58:16.281Z,99810.02
